Whitcomb Heights, Indiana
Current Conditions -  °F | °C
As of 9:53 PM on Tuesday 25 Nov 2014 (Local Time) from KHUF Reporting Station
Overcast Overcast  
Wind Chill: 29°   Ceiling: 1900
Heat Index: 29°   Visibility: 10mi
Dew Point: 21°   Wind: 0mph
Humidity: 72%   Direction: NA
Pressure: 30.22"   Gusts: NA
Location:  39.5107°N, 87.4772°W
Report Text: KHUF 260253Z 00000KT 10SM OVC019 M02/M06 A3022 RMK AO2 SLP238 T10171061 50002
Loading
Personal Weather Stations






























Interactive Weather Map New forecast layout! Learn more

10-Day Weather Forecast

Advertisements
Track Severe Weather on mobile